sensor_id;sensor_type;location;lat;lon;timestamp;P1;durP1;ratioP1;P2;durP2;ratioP2
15271;SDS011;7737;51.578;7.268;2023-02-04T00:00:14;22.53;;;4.43;;
15271;SDS011;7737;51.578;7.268;2023-02-04T00:02:41;19.63;;;4.00;;
15271;SDS011;7737;51.578;7.268;2023-02-04T00:05:08;22.38;;;4.55;;
15271;SDS011;7737;51.578;7.268;2023-02-04T00:07:34;25.60;;;4.40;;
15271;SDS011;7737;51.578;7.268;2023-02-04T00:10:02;25.80;;;4.65;;
15271;SDS011;7737;51.578;7.268;2023-02-04T00:12:28;23.23;;;4.77;;
15271;SDS011;7737;51.578;7.268;2023-02-04T00:14:55;23.90;;;4.77;;
15271;SDS011;7737;51.578;7.268;2023-02-04T00:17:21;25.40;;;4.80;;
15271;SDS011;7737;51.578;7.268;2023-02-04T00:19:48;25.05;;;4.70;;
15271;SDS011;7737;51.578;7.268;2023-02-04T00:22:14;20.83;;;4.50;;
15271;SDS011;7737;51.578;7.268;2023-02-04T00:24:40;23.67;;;4.53;;
15271;SDS011;7737;51.578;7.268;2023-02-04T00:27:08;25.20;;;4.70;;
15271;SDS011;7737;51.578;7.268;2023-02-04T00:29:34;22.53;;;4.40;;
15271;SDS011;7737;51.578;7.268;2023-02-04T00:32:01;19.73;;;4.50;;
15271;SDS011;7737;51.578;7.268;2023-02-04T00:34:27;23.67;;;4.93;;
15271;SDS011;7737;51.578;7.268;2023-02-04T00:36:53;21.37;;;3.43;;
15271;SDS011;7737;51.578;7.268;2023-02-04T00:39:19;25.50;;;4.30;;
15271;SDS011;7737;51.578;7.268;2023-02-04T00:41:46;21.63;;;5.20;;
15271;SDS011;7737;51.578;7.268;2023-02-04T00:44:13;24.77;;;4.60;;
15271;SDS011;7737;51.578;7.268;2023-02-04T00:46:40;20.13;;;3.97;;
15271;SDS011;7737;51.578;7.268;2023-02-04T00:49:06;23.90;;;4.10;;
15271;SDS011;7737;51.578;7.268;2023-02-04T00:51:34;25.25;;;4.85;;
15271;SDS011;7737;51.578;7.268;2023-02-04T00:54:01;29.30;;;5.00;;
15271;SDS011;7737;51.578;7.268;2023-02-04T00:56:27;26.77;;;4.33;;
15271;SDS011;7737;51.578;7.268;2023-02-04T00:58:53;25.83;;;4.67;;
15271;SDS011;7737;51.578;7.268;2023-02-04T01:01:21;23.33;;;4.50;;
15271;SDS011;7737;51.578;7.268;2023-02-04T01:03:47;24.20;;;4.93;;
15271;SDS011;7737;51.578;7.268;2023-02-04T01:06:13;26.57;;;4.13;;
15271;SDS011;7737;51.578;7.268;2023-02-04T01:08:39;27.97;;;5.10;;
15271;SDS011;7737;51.578;7.268;2023-02-04T01:11:06;19.73;;;3.95;;
15271;SDS011;7737;51.578;7.268;2023-02-04T01:13:32;23.63;;;4.70;;
15271;SDS011;7737;51.578;7.268;2023-02-04T01:15:58;24.13;;;4.57;;
15271;SDS011;7737;51.578;7.268;2023-02-04T01:18:26;21.00;;;4.30;;
15271;SDS011;7737;51.578;7.268;2023-02-04T01:20:52;28.03;;;4.40;;
15271;SDS011;7737;51.578;7.268;2023-02-04T01:23:19;23.70;;;4.10;;
15271;SDS011;7737;51.578;7.268;2023-02-04T01:25:45;21.98;;;4.28;;
15271;SDS011;7737;51.578;7.268;2023-02-04T01:28:11;25.05;;;4.60;;
15271;SDS011;7737;51.578;7.268;2023-02-04T01:30:37;22.60;;;4.40;;
15271;SDS011;7737;51.578;7.268;2023-02-04T01:33:04;22.57;;;4.60;;
15271;SDS011;7737;51.578;7.268;2023-02-04T01:35:31;20.27;;;3.90;;
15271;SDS011;7737;51.578;7.268;2023-02-04T01:37:58;25.53;;;4.67;;
15271;SDS011;7737;51.578;7.268;2023-02-04T01:40:24;26.30;;;4.60;;
15271;SDS011;7737;51.578;7.268;2023-02-04T01:42:50;21.88;;;5.75;;
15271;SDS011;7737;51.578;7.268;2023-02-04T01:45:17;25.97;;;4.57;;
15271;SDS011;7737;51.578;7.268;2023-02-04T01:47:43;26.43;;;4.67;;
15271;SDS011;7737;51.578;7.268;2023-02-04T01:50:11;22.57;;;4.20;;
15271;SDS011;7737;51.578;7.268;2023-02-04T01:52:40;25.17;;;4.83;;
15271;SDS011;7737;51.578;7.268;2023-02-04T01:55:10;26.07;;;4.57;;
15271;SDS011;7737;51.578;7.268;2023-02-04T01:57:37;27.93;;;4.93;;
15271;SDS011;7737;51.578;7.268;2023-02-04T02:00:05;23.77;;;4.50;;
15271;SDS011;7737;51.578;7.268;2023-02-04T02:05:16;20.07;;;4.03;;
15271;SDS011;7737;51.578;7.268;2023-02-04T02:07:46;24.33;;;4.67;;
15271;SDS011;7737;51.578;7.268;2023-02-04T02:10:13;20.37;;;4.60;;
15271;SDS011;7737;51.578;7.268;2023-02-04T02:12:40;22.90;;;4.80;;
15271;SDS011;7737;51.578;7.268;2023-02-04T02:15:07;19.97;;;3.93;;
15271;SDS011;7737;51.578;7.268;2023-02-04T02:17:33;26.73;;;4.27;;
15271;SDS011;7737;51.578;7.268;2023-02-04T02:19:59;26.43;;;4.13;;
15271;SDS011;7737;51.578;7.268;2023-02-04T02:22:27;26.13;;;4.80;;
15271;SDS011;7737;51.578;7.268;2023-02-04T02:24:56;23.13;;;4.30;;
15271;SDS011;7737;51.578;7.268;2023-02-04T02:27:22;20.50;;;4.90;;
15271;SDS011;7737;51.578;7.268;2023-02-04T02:29:48;29.30;;;4.70;;
15271;SDS011;7737;51.578;7.268;2023-02-04T02:32:15;22.27;;;4.10;;
15271;SDS011;7737;51.578;7.268;2023-02-04T02:34:41;23.37;;;4.53;;
15271;SDS011;7737;51.578;7.268;2023-02-04T02:37:08;21.10;;;4.37;;
15271;SDS011;7737;51.578;7.268;2023-02-04T02:39:34;26.40;;;5.13;;
15271;SDS011;7737;51.578;7.268;2023-02-04T02:42:02;24.30;;;4.27;;
15271;SDS011;7737;51.578;7.268;2023-02-04T02:44:29;23.43;;;4.30;;
15271;SDS011;7737;51.578;7.268;2023-02-04T02:46:56;20.13;;;4.43;;
15271;SDS011;7737;51.578;7.268;2023-02-04T02:49:22;20.83;;;4.97;;
15271;SDS011;7737;51.578;7.268;2023-02-04T02:51:48;23.83;;;4.40;;
15271;SDS011;7737;51.578;7.268;2023-02-04T02:54:18;23.33;;;4.20;;
15271;SDS011;7737;51.578;7.268;2023-02-04T02:56:44;24.70;;;4.87;;
15271;SDS011;7737;51.578;7.268;2023-02-04T02:59:12;23.07;;;4.87;;
15271;SDS011;7737;51.578;7.268;2023-02-04T03:01:39;22.13;;;4.40;;
15271;SDS011;7737;51.578;7.268;2023-02-04T03:04:06;28.13;;;5.03;;
15271;SDS011;7737;51.578;7.268;2023-02-04T03:06:32;26.10;;;5.00;;
15271;SDS011;7737;51.578;7.268;2023-02-04T03:08:59;21.37;;;4.50;;
15271;SDS011;7737;51.578;7.268;2023-02-04T03:11:25;22.10;;;4.53;;
15271;SDS011;7737;51.578;7.268;2023-02-04T03:13:53;25.60;;;4.90;;
15271;SDS011;7737;51.578;7.268;2023-02-04T03:16:22;22.27;;;4.60;;
15271;SDS011;7737;51.578;7.268;2023-02-04T03:18:48;28.57;;;5.30;;
15271;SDS011;7737;51.578;7.268;2023-02-04T03:21:15;24.20;;;4.60;;
15271;SDS011;7737;51.578;7.268;2023-02-04T03:23:41;26.50;;;4.67;;
15271;SDS011;7737;51.578;7.268;2023-02-04T03:26:07;29.95;;;4.70;;
15271;SDS011;7737;51.578;7.268;2023-02-04T03:28:37;24.27;;;4.53;;
15271;SDS011;7737;51.578;7.268;2023-02-04T03:31:04;28.02;;;4.65;;
15271;SDS011;7737;51.578;7.268;2023-02-04T03:33:32;22.00;;;4.20;;
15271;SDS011;7737;51.578;7.268;2023-02-04T03:36:00;25.13;;;4.27;;
15271;SDS011;7737;51.578;7.268;2023-02-04T03:38:26;24.83;;;4.45;;
15271;SDS011;7737;51.578;7.268;2023-02-04T03:40:52;23.88;;;4.60;;
15271;SDS011;7737;51.578;7.268;2023-02-04T03:43:19;21.53;;;4.63;;
15271;SDS011;7737;51.578;7.268;2023-02-04T03:45:45;26.10;;;4.43;;
15271;SDS011;7737;51.578;7.268;2023-02-04T03:48:11;21.67;;;4.30;;
15271;SDS011;7737;51.578;7.268;2023-02-04T03:50:39;26.23;;;5.13;;
15271;SDS011;7737;51.578;7.268;2023-02-04T03:53:05;21.65;;;4.22;;
15271;SDS011;7737;51.578;7.268;2023-02-04T03:55:31;27.98;;;5.13;;
15271;SDS011;7737;51.578;7.268;2023-02-04T03:57:58;21.35;;;4.20;;
15271;SDS011;7737;51.578;7.268;2023-02-04T04:00:24;21.80;;;4.68;;
15271;SDS011;7737;51.578;7.268;2023-02-04T04:02:51;19.40;;;4.80;;
15271;SDS011;7737;51.578;7.268;2023-02-04T04:05:17;20.33;;;4.47;;
15271;SDS011;7737;51.578;7.268;2023-02-04T04:07:44;25.02;;;4.43;;
15271;SDS011;7737;51.578;7.268;2023-02-04T04:10:11;23.60;;;4.88;;
15271;SDS011;7737;51.578;7.268;2023-02-04T04:12:37;21.25;;;4.18;;
15271;SDS011;7737;51.578;7.268;2023-02-04T04:15:03;25.70;;;4.37;;
15271;SDS011;7737;51.578;7.268;2023-02-04T04:17:30;27.97;;;4.93;;
15271;SDS011;7737;51.578;7.268;2023-02-04T04:19:56;22.20;;;4.47;;
15271;SDS011;7737;51.578;7.268;2023-02-04T04:22:22;27.88;;;4.68;;
15271;SDS011;7737;51.578;7.268;2023-02-04T04:24:50;23.07;;;4.57;;
15271;SDS011;7737;51.578;7.268;2023-02-04T04:27:16;21.33;;;4.43;;
15271;SDS011;7737;51.578;7.268;2023-02-04T04:29:43;30.20;;;4.70;;
15271;SDS011;7737;51.578;7.268;2023-02-04T04:32:10;21.70;;;4.83;;
15271;SDS011;7737;51.578;7.268;2023-02-04T04:34:36;20.93;;;4.57;;
15271;SDS011;7737;51.578;7.268;2023-02-04T04:37:02;21.30;;;4.27;;
15271;SDS011;7737;51.578;7.268;2023-02-04T04:39:29;19.23;;;4.00;;
15271;SDS011;7737;51.578;7.268;2023-02-04T04:41:56;29.60;;;4.37;;
15271;SDS011;7737;51.578;7.268;2023-02-04T04:44:23;24.80;;;5.22;;
15271;SDS011;7737;51.578;7.268;2023-02-04T04:46:49;24.77;;;4.30;;
15271;SDS011;7737;51.578;7.268;2023-02-04T04:49:15;28.30;;;5.00;;
15271;SDS011;7737;51.578;7.268;2023-02-04T04:51:41;22.93;;;4.70;;
15271;SDS011;7737;51.578;7.268;2023-02-04T04:54:08;26.27;;;4.50;;
15271;SDS011;7737;51.578;7.268;2023-02-04T04:56:34;24.90;;;4.70;;
15271;SDS011;7737;51.578;7.268;2023-02-04T04:59:02;22.30;;;4.63;;
15271;SDS011;7737;51.578;7.268;2023-02-04T05:01:28;22.20;;;4.40;;
15271;SDS011;7737;51.578;7.268;2023-02-04T05:03:54;32.03;;;5.03;;
15271;SDS011;7737;51.578;7.268;2023-02-04T05:06:20;24.50;;;4.77;;
15271;SDS011;7737;51.578;7.268;2023-02-04T05:08:49;26.57;;;4.43;;
15271;SDS011;7737;51.578;7.268;2023-02-04T05:11:15;25.77;;;4.37;;
15271;SDS011;7737;51.578;7.268;2023-02-04T05:13:42;25.58;;;4.45;;
15271;SDS011;7737;51.578;7.268;2023-02-04T05:16:09;27.53;;;4.73;;
15271;SDS011;7737;51.578;7.268;2023-02-04T05:18:36;24.20;;;4.23;;
15271;SDS011;7737;51.578;7.268;2023-02-04T05:21:02;25.87;;;4.23;;
15271;SDS011;7737;51.578;7.268;2023-02-04T05:23:28;25.73;;;4.17;;
15271;SDS011;7737;51.578;7.268;2023-02-04T05:25:55;34.00;;;5.07;;
15271;SDS011;7737;51.578;7.268;2023-02-04T05:28:21;33.70;;;4.90;;
15271;SDS011;7737;51.578;7.268;2023-02-04T05:30:47;21.10;;;4.87;;
15271;SDS011;7737;51.578;7.268;2023-02-04T05:33:15;28.87;;;4.97;;
15271;SDS011;7737;51.578;7.268;2023-02-04T05:35:41;28.50;;;4.50;;
15271;SDS011;7737;51.578;7.268;2023-02-04T05:38:08;23.37;;;4.37;;
15271;SDS011;7737;51.578;7.268;2023-02-04T05:40:34;27.87;;;4.90;;
15271;SDS011;7737;51.578;7.268;2023-02-04T05:43:00;25.23;;;5.10;;
15271;SDS011;7737;51.578;7.268;2023-02-04T05:45:28;24.40;;;4.63;;
15271;SDS011;7737;51.578;7.268;2023-02-04T05:47:55;27.57;;;4.93;;
15271;SDS011;7737;51.578;7.268;2023-02-04T05:50:22;21.77;;;4.43;;
15271;SDS011;7737;51.578;7.268;2023-02-04T05:52:49;26.93;;;4.70;;
15271;SDS011;7737;51.578;7.268;2023-02-04T05:55:15;22.57;;;4.60;;
15271;SDS011;7737;51.578;7.268;2023-02-04T05:57:42;22.90;;;4.30;;
15271;SDS011;7737;51.578;7.268;2023-02-04T06:00:09;22.70;;;4.53;;
15271;SDS011;7737;51.578;7.268;2023-02-04T06:02:36;24.27;;;4.33;;
15271;SDS011;7737;51.578;7.268;2023-02-04T06:05:02;23.50;;;4.53;;
15271;SDS011;7737;51.578;7.268;2023-02-04T06:07:30;28.83;;;4.67;;
15271;SDS011;7737;51.578;7.268;2023-02-04T06:09:57;23.33;;;4.60;;
15271;SDS011;7737;51.578;7.268;2023-02-04T06:12:23;26.30;;;5.47;;
15271;SDS011;7737;51.578;7.268;2023-02-04T06:14:49;27.87;;;4.57;;
15271;SDS011;7737;51.578;7.268;2023-02-04T06:17:16;25.90;;;5.15;;
15271;SDS011;7737;51.578;7.268;2023-02-04T06:19:42;20.03;;;3.93;;
15271;SDS011;7737;51.578;7.268;2023-02-04T06:22:08;30.73;;;5.05;;
15271;SDS011;7737;51.578;7.268;2023-02-04T06:24:36;23.47;;;4.20;;
15271;SDS011;7737;51.578;7.268;2023-02-04T06:27:02;24.50;;;4.25;;
15271;SDS011;7737;51.578;7.268;2023-02-04T06:29:28;28.93;;;4.10;;
15271;SDS011;7737;51.578;7.268;2023-02-04T06:31:55;25.97;;;4.07;;
15271;SDS011;7737;51.578;7.268;2023-02-04T06:34:21;24.45;;;4.82;;
15271;SDS011;7737;51.578;7.268;2023-02-04T06:36:47;26.57;;;5.13;;
15271;SDS011;7737;51.578;7.268;2023-02-04T06:39:13;20.27;;;4.37;;
15271;SDS011;7737;51.578;7.268;2023-02-04T06:41:41;25.03;;;4.70;;
15271;SDS011;7737;51.578;7.268;2023-02-04T06:44:07;22.87;;;4.23;;
15271;SDS011;7737;51.578;7.268;2023-02-04T06:46:34;21.27;;;4.28;;
15271;SDS011;7737;51.578;7.268;2023-02-04T06:49:00;27.90;;;5.43;;
15271;SDS011;7737;51.578;7.268;2023-02-04T06:51:26;26.97;;;5.10;;
15271;SDS011;7737;51.578;7.268;2023-02-04T06:53:53;24.90;;;4.17;;
15271;SDS011;7737;51.578;7.268;2023-02-04T06:56:19;24.40;;;4.17;;
15271;SDS011;7737;51.578;7.268;2023-02-04T06:58:46;21.77;;;4.60;;
15271;SDS011;7737;51.578;7.268;2023-02-04T07:01:13;26.63;;;4.57;;
15271;SDS011;7737;51.578;7.268;2023-02-04T07:03:40;23.70;;;4.20;;
15271;SDS011;7737;51.578;7.268;2023-02-04T07:06:06;27.85;;;4.60;;
15271;SDS011;7737;51.578;7.268;2023-02-04T07:08:33;23.27;;;4.30;;
15271;SDS011;7737;51.578;7.268;2023-02-04T07:10:59;20.50;;;3.90;;
15271;SDS011;7737;51.578;7.268;2023-02-04T07:13:25;29.13;;;5.00;;
15271;SDS011;7737;51.578;7.268;2023-02-04T07:15:53;29.70;;;4.90;;
15271;SDS011;7737;51.578;7.268;2023-02-04T07:18:19;26.40;;;4.80;;
15271;SDS011;7737;51.578;7.268;2023-02-04T07:20:46;26.40;;;4.97;;
15271;SDS011;7737;51.578;7.268;2023-02-04T07:23:12;24.10;;;4.23;;
15271;SDS011;7737;51.578;7.268;2023-02-04T07:25:38;29.93;;;4.40;;
15271;SDS011;7737;51.578;7.268;2023-02-04T07:28:04;21.27;;;4.80;;
15271;SDS011;7737;51.578;7.268;2023-02-04T07:30:31;21.53;;;4.53;;
15271;SDS011;7737;51.578;7.268;2023-02-04T07:32:58;25.02;;;5.68;;
15271;SDS011;7737;51.578;7.268;2023-02-04T07:35:25;27.27;;;6.33;;
15271;SDS011;7737;51.578;7.268;2023-02-04T07:37:51;21.40;;;4.90;;
15271;SDS011;7737;51.578;7.268;2023-02-04T07:40:17;27.67;;;5.33;;
15271;SDS011;7737;51.578;7.268;2023-02-04T07:42:43;26.87;;;5.93;;
15271;SDS011;7737;51.578;7.268;2023-02-04T07:45:10;25.47;;;6.83;;
15271;SDS011;7737;51.578;7.268;2023-02-04T07:47:36;36.73;;;11.10;;
15271;SDS011;7737;51.578;7.268;2023-02-04T07:50:04;35.22;;;10.35;;
15271;SDS011;7737;51.578;7.268;2023-02-04T07:52:30;32.30;;;8.50;;
15271;SDS011;7737;51.578;7.268;2023-02-04T07:54:57;33.53;;;7.20;;
15271;SDS011;7737;51.578;7.268;2023-02-04T07:57:23;27.90;;;7.43;;
15271;SDS011;7737;51.578;7.268;2023-02-04T07:59:49;31.27;;;10.27;;
15271;SDS011;7737;51.578;7.268;2023-02-04T08:02:16;34.20;;;10.60;;
15271;SDS011;7737;51.578;7.268;2023-02-04T08:04:42;29.45;;;9.70;;
15271;SDS011;7737;51.578;7.268;2023-02-04T08:07:10;29.37;;;8.17;;
15271;SDS011;7737;51.578;7.268;2023-02-04T08:09:36;28.55;;;7.40;;
15271;SDS011;7737;51.578;7.268;2023-02-04T08:12:03;29.43;;;7.30;;
15271;SDS011;7737;51.578;7.268;2023-02-04T08:14:29;30.27;;;7.57;;
15271;SDS011;7737;51.578;7.268;2023-02-04T08:16:55;27.57;;;8.40;;
15271;SDS011;7737;51.578;7.268;2023-02-04T08:19:22;25.40;;;7.97;;
15271;SDS011;7737;51.578;7.268;2023-02-04T08:21:48;27.50;;;6.50;;
15271;SDS011;7737;51.578;7.268;2023-02-04T08:24:16;28.00;;;8.37;;
15271;SDS011;7737;51.578;7.268;2023-02-04T08:26:42;29.40;;;5.73;;
15271;SDS011;7737;51.578;7.268;2023-02-04T08:29:09;31.53;;;6.43;;
15271;SDS011;7737;51.578;7.268;2023-02-04T08:31:36;28.63;;;5.83;;
15271;SDS011;7737;51.578;7.268;2023-02-04T08:34:02;25.87;;;5.53;;
15271;SDS011;7737;51.578;7.268;2023-02-04T08:36:28;35.50;;;6.10;;
15271;SDS011;7737;51.578;7.268;2023-02-04T08:38:55;32.63;;;5.70;;
15271;SDS011;7737;51.578;7.268;2023-02-04T08:41:22;30.33;;;6.20;;
15271;SDS011;7737;51.578;7.268;2023-02-04T08:43:49;26.37;;;5.53;;
15271;SDS011;7737;51.578;7.268;2023-02-04T08:46:15;28.00;;;5.47;;
15271;SDS011;7737;51.578;7.268;2023-02-04T08:48:41;32.73;;;6.03;;
15271;SDS011;7737;51.578;7.268;2023-02-04T08:51:07;27.77;;;5.73;;
15271;SDS011;7737;51.578;7.268;2023-02-04T08:53:34;27.17;;;5.00;;
15271;SDS011;7737;51.578;7.268;2023-02-04T08:56:01;27.10;;;5.33;;
15271;SDS011;7737;51.578;7.268;2023-02-04T08:58:29;28.60;;;5.20;;
15271;SDS011;7737;51.578;7.268;2023-02-04T09:00:55;30.73;;;5.20;;
15271;SDS011;7737;51.578;7.268;2023-02-04T09:03:22;20.73;;;5.00;;
15271;SDS011;7737;51.578;7.268;2023-02-04T09:05:48;30.67;;;5.10;;
15271;SDS011;7737;51.578;7.268;2023-02-04T09:08:14;33.08;;;6.35;;
15271;SDS011;7737;51.578;7.268;2023-02-04T09:10:40;27.37;;;6.13;;
15271;SDS011;7737;51.578;7.268;2023-02-04T09:13:07;25.40;;;5.60;;
15271;SDS011;7737;51.578;7.268;2023-02-04T09:15:37;25.02;;;5.88;;
15271;SDS011;7737;51.578;7.268;2023-02-04T09:18:03;30.55;;;5.50;;
15271;SDS011;7737;51.578;7.268;2023-02-04T09:20:38;34.63;;;6.40;;
15271;SDS011;7737;51.578;7.268;2023-02-04T09:23:04;33.88;;;6.05;;
15271;SDS011;7737;51.578;7.268;2023-02-04T09:25:32;30.73;;;5.57;;
15271;SDS011;7737;51.578;7.268;2023-02-04T09:27:59;34.33;;;5.85;;
15271;SDS011;7737;51.578;7.268;2023-02-04T09:30:25;32.72;;;5.93;;
15271;SDS011;7737;51.578;7.268;2023-02-04T09:32:53;37.13;;;5.70;;
15271;SDS011;7737;51.578;7.268;2023-02-04T09:35:19;28.42;;;5.72;;
15271;SDS011;7737;51.578;7.268;2023-02-04T09:37:45;34.85;;;6.55;;
15271;SDS011;7737;51.578;7.268;2023-02-04T09:40:13;30.27;;;6.20;;
15271;SDS011;7737;51.578;7.268;2023-02-04T09:42:41;26.48;;;5.00;;
15271;SDS011;7737;51.578;7.268;2023-02-04T09:45:08;35.30;;;6.50;;
15271;SDS011;7737;51.578;7.268;2023-02-04T09:47:35;37.05;;;6.57;;
15271;SDS011;7737;51.578;7.268;2023-02-04T09:50:03;27.80;;;5.57;;
15271;SDS011;7737;51.578;7.268;2023-02-04T09:52:29;31.40;;;5.97;;
15271;SDS011;7737;51.578;7.268;2023-02-04T09:54:55;30.37;;;5.43;;
15271;SDS011;7737;51.578;7.268;2023-02-04T09:57:22;30.70;;;6.05;;
15271;SDS011;7737;51.578;7.268;2023-02-04T09:59:49;29.65;;;6.00;;
15271;SDS011;7737;51.578;7.268;2023-02-04T10:02:19;28.90;;;6.07;;
15271;SDS011;7737;51.578;7.268;2023-02-04T10:04:46;30.45;;;5.80;;
15271;SDS011;7737;51.578;7.268;2023-02-04T10:07:14;28.52;;;6.28;;
15271;SDS011;7737;51.578;7.268;2023-02-04T10:09:43;26.58;;;5.15;;
15271;SDS011;7737;51.578;7.268;2023-02-04T10:12:09;23.58;;;5.18;;
15271;SDS011;7737;51.578;7.268;2023-02-04T10:14:35;28.13;;;5.85;;
15271;SDS011;7737;51.578;7.268;2023-02-04T10:17:01;31.85;;;5.88;;
15271;SDS011;7737;51.578;7.268;2023-02-04T10:19:28;27.17;;;5.55;;
15271;SDS011;7737;51.578;7.268;2023-02-04T10:21:55;29.13;;;6.03;;
15271;SDS011;7737;51.578;7.268;2023-02-04T10:24:24;28.38;;;5.88;;
15271;SDS011;7737;51.578;7.268;2023-02-04T10:26:52;28.88;;;6.20;;
15271;SDS011;7737;51.578;7.268;2023-02-04T10:29:19;24.65;;;6.03;;
15271;SDS011;7737;51.578;7.268;2023-02-04T10:31:46;25.77;;;5.43;;
15271;SDS011;7737;51.578;7.268;2023-02-04T10:34:13;32.25;;;5.90;;
15271;SDS011;7737;51.578;7.268;2023-02-04T10:36:40;29.27;;;5.97;;
15271;SDS011;7737;51.578;7.268;2023-02-04T10:39:09;33.80;;;6.30;;
15271;SDS011;7737;51.578;7.268;2023-02-04T10:41:38;24.17;;;6.00;;
15271;SDS011;7737;51.578;7.268;2023-02-04T10:44:05;24.90;;;5.78;;
15271;SDS011;7737;51.578;7.268;2023-02-04T10:46:32;27.05;;;5.75;;
15271;SDS011;7737;51.578;7.268;2023-02-04T10:48:58;27.80;;;6.32;;
15271;SDS011;7737;51.578;7.268;2023-02-04T10:51:24;29.75;;;6.57;;
15271;SDS011;7737;51.578;7.268;2023-02-04T10:53:51;30.30;;;6.55;;
15271;SDS011;7737;51.578;7.268;2023-02-04T10:56:35;29.98;;;6.25;;
15271;SDS011;7737;51.578;7.268;2023-02-04T10:59:03;28.67;;;5.72;;
15271;SDS011;7737;51.578;7.268;2023-02-04T11:01:29;31.27;;;6.95;;
15271;SDS011;7737;51.578;7.268;2023-02-04T11:03:56;24.30;;;5.20;;
15271;SDS011;7737;51.578;7.268;2023-02-04T11:06:23;23.55;;;5.72;;
15271;SDS011;7737;51.578;7.268;2023-02-04T11:08:49;31.38;;;6.18;;
15271;SDS011;7737;51.578;7.268;2023-02-04T11:11:19;23.25;;;6.13;;
15271;SDS011;7737;51.578;7.268;2023-02-04T11:13:56;22.73;;;6.82;;
15271;SDS011;7737;51.578;7.268;2023-02-04T11:16:24;27.35;;;6.25;;
15271;SDS011;7737;51.578;7.268;2023-02-04T11:18:52;26.55;;;5.65;;
15271;SDS011;7737;51.578;7.268;2023-02-04T11:21:23;22.58;;;5.90;;
15271;SDS011;7737;51.578;7.268;2023-02-04T11:23:49;25.63;;;5.85;;
15271;SDS011;7737;51.578;7.268;2023-02-04T11:26:17;29.23;;;6.70;;
15271;SDS011;7737;51.578;7.268;2023-02-04T11:28:48;27.80;;;5.40;;
15271;SDS011;7737;51.578;7.268;2023-02-04T11:31:26;24.02;;;5.85;;
15271;SDS011;7737;51.578;7.268;2023-02-04T11:34:02;29.20;;;6.05;;
15271;SDS011;7737;51.578;7.268;2023-02-04T11:36:32;23.65;;;5.63;;
15271;SDS011;7737;51.578;7.268;2023-02-04T11:39:05;21.70;;;5.32;;
15271;SDS011;7737;51.578;7.268;2023-02-04T11:41:32;26.92;;;6.95;;
15271;SDS011;7737;51.578;7.268;2023-02-04T11:43:58;22.75;;;5.53;;
15271;SDS011;7737;51.578;7.268;2023-02-04T11:46:26;26.95;;;6.43;;
15271;SDS011;7737;51.578;7.268;2023-02-04T11:48:53;26.73;;;6.38;;
15271;SDS011;7737;51.578;7.268;2023-02-04T11:51:20;25.35;;;6.22;;
15271;SDS011;7737;51.578;7.268;2023-02-04T11:53:49;26.55;;;6.18;;
15271;SDS011;7737;51.578;7.268;2023-02-04T11:56:16;22.73;;;6.10;;
15271;SDS011;7737;51.578;7.268;2023-02-04T11:58:43;24.52;;;6.72;;
15271;SDS011;7737;51.578;7.268;2023-02-04T12:01:15;28.42;;;6.90;;
15271;SDS011;7737;51.578;7.268;2023-02-04T12:03:46;25.90;;;6.10;;
15271;SDS011;7737;51.578;7.268;2023-02-04T12:06:19;26.60;;;6.35;;
15271;SDS011;7737;51.578;7.268;2023-02-04T12:08:45;20.83;;;5.93;;
15271;SDS011;7737;51.578;7.268;2023-02-04T12:11:23;24.38;;;6.85;;
15271;SDS011;7737;51.578;7.268;2023-02-04T12:13:52;24.90;;;6.90;;
15271;SDS011;7737;51.578;7.268;2023-02-04T12:16:18;26.77;;;6.28;;
15271;SDS011;7737;51.578;7.268;2023-02-04T12:18:46;20.60;;;6.32;;
15271;SDS011;7737;51.578;7.268;2023-02-04T12:21:13;23.13;;;6.68;;
15271;SDS011;7737;51.578;7.268;2023-02-04T12:23:39;24.23;;;6.90;;
15271;SDS011;7737;51.578;7.268;2023-02-04T12:26:07;25.60;;;8.18;;
15271;SDS011;7737;51.578;7.268;2023-02-04T12:28:33;24.80;;;6.95;;
15271;SDS011;7737;51.578;7.268;2023-02-04T12:30:59;23.63;;;7.53;;
15271;SDS011;7737;51.578;7.268;2023-02-04T12:33:25;22.38;;;7.05;;
15271;SDS011;7737;51.578;7.268;2023-02-04T12:35:53;26.58;;;7.85;;
15271;SDS011;7737;51.578;7.268;2023-02-04T12:38:20;25.10;;;7.60;;
15271;SDS011;7737;51.578;7.268;2023-02-04T12:40:46;22.25;;;6.85;;
15271;SDS011;7737;51.578;7.268;2023-02-04T12:43:13;22.35;;;6.95;;
15271;SDS011;7737;51.578;7.268;2023-02-04T12:45:39;24.33;;;8.15;;
15271;SDS011;7737;51.578;7.268;2023-02-04T12:48:09;23.75;;;7.40;;
15271;SDS011;7737;51.578;7.268;2023-02-04T12:50:36;23.98;;;7.38;;
15271;SDS011;7737;51.578;7.268;2023-02-04T12:53:03;22.08;;;6.65;;
15271;SDS011;7737;51.578;7.268;2023-02-04T12:55:30;25.83;;;7.25;;
15271;SDS011;7737;51.578;7.268;2023-02-04T12:57:56;26.63;;;7.18;;
15271;SDS011;7737;51.578;7.268;2023-02-04T13:00:23;32.05;;;8.43;;
15271;SDS011;7737;51.578;7.268;2023-02-04T13:02:51;26.10;;;7.97;;
15271;SDS011;7737;51.578;7.268;2023-02-04T13:05:19;20.60;;;7.20;;
15271;SDS011;7737;51.578;7.268;2023-02-04T13:07:45;28.23;;;8.00;;
15271;SDS011;7737;51.578;7.268;2023-02-04T13:10:13;23.80;;;7.72;;
15271;SDS011;7737;51.578;7.268;2023-02-04T13:12:39;24.65;;;7.60;;
15271;SDS011;7737;51.578;7.268;2023-02-04T13:15:06;26.90;;;8.38;;
15271;SDS011;7737;51.578;7.268;2023-02-04T13:17:33;20.88;;;7.50;;
15271;SDS011;7737;51.578;7.268;2023-02-04T13:19:59;23.75;;;8.30;;
15271;SDS011;7737;51.578;7.268;2023-02-04T13:22:25;25.80;;;7.78;;
15271;SDS011;7737;51.578;7.268;2023-02-04T13:24:52;23.85;;;8.38;;
15271;SDS011;7737;51.578;7.268;2023-02-04T13:27:19;23.02;;;8.55;;
15271;SDS011;7737;51.578;7.268;2023-02-04T13:29:46;26.20;;;8.98;;
15271;SDS011;7737;51.578;7.268;2023-02-04T13:32:12;23.08;;;8.52;;
15271;SDS011;7737;51.578;7.268;2023-02-04T13:34:39;23.42;;;8.85;;
15271;SDS011;7737;51.578;7.268;2023-02-04T13:37:05;17.52;;;8.32;;
15271;SDS011;7737;51.578;7.268;2023-02-04T13:39:31;24.23;;;8.98;;
15271;SDS011;7737;51.578;7.268;2023-02-04T13:41:58;27.45;;;8.80;;
15271;SDS011;7737;51.578;7.268;2023-02-04T13:44:25;25.60;;;11.60;;
15271;SDS011;7737;51.578;7.268;2023-02-04T13:46:52;21.58;;;9.02;;
15271;SDS011;7737;51.578;7.268;2023-02-04T13:49:18;23.65;;;9.10;;
15271;SDS011;7737;51.578;7.268;2023-02-04T13:51:45;21.05;;;8.77;;
15271;SDS011;7737;51.578;7.268;2023-02-04T13:54:11;22.02;;;8.70;;
15271;SDS011;7737;51.578;7.268;2023-02-04T13:56:38;22.38;;;8.27;;
15271;SDS011;7737;51.578;7.268;2023-02-04T13:59:05;20.77;;;7.97;;
15271;SDS011;7737;51.578;7.268;2023-02-04T14:01:33;22.48;;;9.00;;
15271;SDS011;7737;51.578;7.268;2023-02-04T14:03:59;26.88;;;10.40;;
15271;SDS011;7737;51.578;7.268;2023-02-04T14:06:25;24.77;;;11.18;;
15271;SDS011;7737;51.578;7.268;2023-02-04T14:08:57;27.42;;;11.45;;
15271;SDS011;7737;51.578;7.268;2023-02-04T14:11:23;27.77;;;11.27;;
15271;SDS011;7737;51.578;7.268;2023-02-04T14:13:50;25.83;;;11.35;;
15271;SDS011;7737;51.578;7.268;2023-02-04T14:16:16;26.60;;;10.25;;
15271;SDS011;7737;51.578;7.268;2023-02-04T14:18:44;26.50;;;10.07;;
15271;SDS011;7737;51.578;7.268;2023-02-04T14:21:10;21.38;;;8.95;;
15271;SDS011;7737;51.578;7.268;2023-02-04T14:23:36;22.33;;;9.90;;
15271;SDS011;7737;51.578;7.268;2023-02-04T14:26:03;24.88;;;9.70;;
15271;SDS011;7737;51.578;7.268;2023-02-04T14:28:29;29.10;;;10.25;;
15271;SDS011;7737;51.578;7.268;2023-02-04T14:30:55;22.67;;;8.60;;
15271;SDS011;7737;51.578;7.268;2023-02-04T14:33:22;20.58;;;9.13;;
15271;SDS011;7737;51.578;7.268;2023-02-04T14:35:50;25.20;;;8.80;;
15271;SDS011;7737;51.578;7.268;2023-02-04T14:38:16;25.17;;;8.77;;
15271;SDS011;7737;51.578;7.268;2023-02-04T14:40:42;26.17;;;8.48;;
15271;SDS011;7737;51.578;7.268;2023-02-04T14:43:09;24.63;;;8.50;;
15271;SDS011;7737;51.578;7.268;2023-02-04T14:45:36;23.65;;;7.90;;
15271;SDS011;7737;51.578;7.268;2023-02-04T14:48:02;21.05;;;7.88;;